This is the latest recevied weather packets stored in our database for station/object N7IGG. If no packets are shown the sender has not sent any weather packets the latest 10 day(s).
| Time | Temp. | Humidity | Pressure | Rain* | Wind** | Luminosity | Snow |
|---|---|---|---|---|---|---|---|
| 1777256673 | 18.89° C | 50% | 1011.3 hPa | 0 mm | - | 50 W/m² | - |
| 1777256368 | 19.44° C | 49% | 1011.4 hPa | 0 mm | - | 64 W/m² | - |
| 1777256065 | 18.33° C | 48% | 1011.3 hPa | 0 mm | - | 76 W/m² | - |
| 1777255760 | 17.78° C | 50% | 1011.2 hPa | 0 mm | - | 82 W/m² | - |
| 1777255457 | 17.22° C | 50% | 1011.1 hPa | 0 mm | - | 37 W/m² | - |
| 1777255153 | 17.22° C | 52% | 1011.2 hPa | 0 mm | - | 39 W/m² | - |
| 1777254849 | 17.22° C | 54% | 1011.2 hPa | 0 mm | - | 66 W/m² | - |
| 1777254548 | 15.56° C | 54% | 1011 hPa | 0 mm | - | 45 W/m² | - |
| 1777254243 | 15.56° C | 55% | 1011 hPa | 0 mm | - | 49 W/m² | - |
| 1777253939 | 15.56° C | 52% | 1011 hPa | 0 mm | - | 60 W/m² | - |
| 1777253636 | 15.56° C | 56% | 1011.1 hPa | 0 mm | - | 65 W/m² | - |
| 1777253334 | 16.67° C | 48% | 1011 hPa | 0 mm | - | 73 W/m² | - |
| 1777253031 | 16.11° C | 48% | 1011.1 hPa | 0 mm | - | 62 W/m² | - |
| 1777252729 | 15.56° C | 50% | 1010.8 hPa | 0 mm | - | 56 W/m² | - |
| 1777252426 | 15.56° C | 51% | 1011 hPa | 0 mm | - | 66 W/m² | - |
| 1777252123 | 15.56° C | 55% | 1010.9 hPa | 0 mm | - | 60 W/m² | - |
| 1777251820 | 16.11° C | 54% | 1010.9 hPa | 0 mm | - | 64 W/m² | - |
| 1777251516 | 15.56° C | 55% | 1010.9 hPa | 0 mm | - | 72 W/m² | - |
| 1777251213 | 15.56° C | 58% | 1010.8 hPa | 0 mm | - | 93 W/m² | - |
| 1777250909 | 19.44° C | 44% | 1010.6 hPa | 0 mm | - | 106 W/m² | - |
| 1777250606 | 19.44° C | 38% | 1010.6 hPa | 0 mm | - | 99 W/m² | - |
| 1777250301 | 18.89° C | 36% | 1010.5 hPa | 0 mm | - | 92 W/m² | - |
| 1777249998 | 18.89° C | 39% | 1010.5 hPa | 0 mm | - | 103 W/m² | - |
| 1777249694 | 18.89° C | 37% | 1010.4 hPa | 0 mm | - | 113 W/m² | - |
| 1777249390 | 18.89° C | 39% | 1010.5 hPa | 0 mm | - | 253 W/m² | - |
* Rain latest hour (hover to see other rain measurements)
** Current wind speed in m/s (hover to see current wind gust speed)